createdAt,value
2017-01-19T00:00:40.764Z,0
2017-01-19T00:01:49.741Z,0
2017-01-19T00:02:58.726Z,0
2017-01-19T00:04:16.157Z,0
2017-01-19T00:05:37.494Z,0
2017-01-19T00:06:52.986Z,0
2017-01-19T00:08:11.487Z,0
2017-01-19T00:09:33.834Z,0
2017-01-19T00:10:49.582Z,0
2017-01-19T00:12:09.085Z,0
2017-01-19T00:13:27.781Z,0
2017-01-19T00:14:44.341Z,0
2017-01-19T00:16:03.591Z,0
2017-01-19T00:17:23.684Z,0
2017-01-19T00:18:38.671Z,0
2017-01-19T00:20:00.908Z,0
2017-01-19T00:21:19.578Z,0
2017-01-19T00:22:37.196Z,0
2017-01-19T00:23:55.429Z,0
2017-01-19T00:25:12.620Z,0
2017-01-19T00:26:33.620Z,0
2017-01-19T00:27:56.206Z,0
2017-01-19T00:29:15.853Z,0
2017-01-19T00:30:35.543Z,0
2017-01-19T00:31:56.448Z,0
2017-01-19T00:33:16.366Z,0
2017-01-19T00:34:36.307Z,0
2017-01-19T00:35:56.815Z,0
2017-01-19T00:37:11.761Z,0
2017-01-19T00:38:28.973Z,0
2017-01-19T00:39:48.459Z,0
2017-01-19T00:41:07.121Z,0
2017-01-19T00:42:29.638Z,0
2017-01-19T00:43:53.015Z,0
2017-01-19T00:45:10.382Z,0
2017-01-19T00:46:30.252Z,0
2017-01-19T00:47:42.827Z,0
2017-01-19T00:48:51.810Z,0
2017-01-19T00:50:00.786Z,0
2017-01-19T00:51:10.506Z,0
2017-01-19T00:52:19.664Z,0
2017-01-19T00:53:28.707Z,0
2017-01-19T00:54:37.688Z,0
2017-01-19T00:55:46.663Z,0
2017-01-19T00:56:55.858Z,0
2017-01-19T00:58:04.838Z,0
2017-01-19T00:59:13.818Z,0
2017-01-19T01:00:22.940Z,0
2017-01-19T01:01:32.251Z,0
2017-01-19T01:02:41.240Z,0
2017-01-19T01:03:50.705Z,0
2017-01-19T01:05:00.336Z,0
2017-01-19T01:06:09.322Z,0
2017-01-19T01:07:18.300Z,0
2017-01-19T01:08:27.275Z,0
2017-01-19T01:09:36.258Z,0
2017-01-19T01:10:45.723Z,0
2017-01-19T01:11:54.707Z,0
2017-01-19T01:13:03.687Z,0
2017-01-19T01:14:12.768Z,0
2017-01-19T01:15:21.753Z,0
2017-01-19T01:16:30.771Z,0
2017-01-19T01:17:39.755Z,0
2017-01-19T01:18:51.181Z,0
2017-01-19T01:20:01.919Z,0
2017-01-19T01:21:11.646Z,0
2017-01-19T01:22:21.653Z,0
2017-01-19T01:23:30.948Z,0
2017-01-19T01:24:39.924Z,0
2017-01-19T01:25:50.002Z,0
2017-01-19T01:26:58.980Z,0
2017-01-19T01:28:08.652Z,0
2017-01-19T01:29:20.396Z,0
2017-01-19T01:30:30.789Z,0
2017-01-19T01:31:39.770Z,0
2017-01-19T01:32:49.343Z,0
2017-01-19T01:33:58.380Z,0
2017-01-19T01:35:07.665Z,0
2017-01-19T01:36:17.466Z,0
2017-01-19T01:37:27.033Z,0
2017-01-19T01:38:36.045Z,0
2017-01-19T01:39:45.021Z,0
2017-01-19T01:40:54.405Z,0
2017-01-19T01:42:03.646Z,0
2017-01-19T01:43:15.264Z,0
2017-01-19T01:44:24.570Z,0
2017-01-19T01:45:34.659Z,0
2017-01-19T01:46:43.642Z,0
2017-01-19T01:47:52.626Z,0
2017-01-19T01:49:01.604Z,0
2017-01-19T01:50:12.056Z,0
2017-01-19T01:51:22.102Z,0
2017-01-19T01:52:31.811Z,0
2017-01-19T01:53:40.796Z,0
2017-01-19T01:54:49.820Z,0
2017-01-19T01:56:00.394Z,0
2017-01-19T01:57:09.576Z,0
2017-01-19T01:58:19.438Z,0
2017-01-19T01:59:28.417Z,0
2017-01-19T02:00:37.395Z,0
2017-01-19T02:01:46.594Z,0
2017-01-19T02:02:56.731Z,0
2017-01-19T02:04:05.707Z,0
2017-01-19T02:05:15.333Z,0
2017-01-19T02:06:24.906Z,0
2017-01-19T02:07:34.027Z,0
2017-01-19T02:08:43.317Z,0
2017-01-19T02:09:52.682Z,0
2017-01-19T02:11:01.686Z,0
2017-01-19T02:12:10.666Z,0
2017-01-19T02:13:19.646Z,0
2017-01-19T02:14:28.733Z,0
2017-01-19T02:15:38.647Z,0
2017-01-19T02:16:48.037Z,0
2017-01-19T02:17:57.703Z,0
2017-01-19T02:19:06.678Z,0
2017-01-19T02:20:15.673Z,0
2017-01-19T02:21:24.651Z,0
2017-01-19T02:22:33.626Z,0
2017-01-19T02:23:42.999Z,0
2017-01-19T02:24:52.398Z,0
2017-01-19T02:26:01.378Z,0
2017-01-19T02:27:10.725Z,0
2017-01-19T02:28:22.585Z,0
2017-01-19T02:29:33.180Z,0
2017-01-19T02:30:42.541Z,0
2017-01-19T02:31:51.872Z,0
2017-01-19T02:33:00.857Z,0
2017-01-19T02:34:10.562Z,0
2017-01-19T02:35:20.250Z,0
2017-01-19T02:36:29.359Z,0
2017-01-19T02:37:39.032Z,0
2017-01-19T02:38:48.014Z,0
2017-01-19T02:39:57.584Z,0
2017-01-19T02:41:07.796Z,0
2017-01-19T02:42:16.791Z,0
2017-01-19T02:43:25.774Z,0
2017-01-19T02:44:35.995Z,0
2017-01-19T02:45:45.668Z,0
2017-01-19T02:46:55.540Z,0
2017-01-19T02:48:05.385Z,0
2017-01-19T02:49:15.035Z,0
2017-01-19T02:50:24.352Z,0
2017-01-19T02:51:33.337Z,0
2017-01-19T02:52:42.321Z,0
2017-01-19T02:53:51.298Z,0
2017-01-19T02:55:01.004Z,0
2017-01-19T02:56:10.352Z,0
2017-01-19T02:57:23.066Z,0
2017-01-19T02:58:36.530Z,0
2017-01-19T02:59:52.849Z,0
2017-01-19T03:01:05.252Z,0
2017-01-19T03:02:15.742Z,0
2017-01-19T03:03:29.532Z,0
2017-01-19T03:04:45.584Z,0
2017-01-19T03:05:59.299Z,0
2017-01-19T03:07:12.111Z,0
2017-01-19T03:08:24.810Z,0
2017-01-19T03:09:37.817Z,0
2017-01-19T03:10:49.242Z,0
2017-01-19T03:12:05.422Z,0
2017-01-19T03:13:16.301Z,0
2017-01-19T03:14:28.814Z,0
2017-01-19T03:15:44.020Z,0
2017-01-19T03:16:53.007Z,0
2017-01-19T03:18:01.987Z,0
2017-01-19T03:19:10.971Z,0
2017-01-19T03:20:19.958Z,0
2017-01-19T03:21:28.937Z,0
2017-01-19T03:22:37.915Z,0
2017-01-19T03:23:46.894Z,0
2017-01-19T03:24:55.875Z,0
2017-01-19T03:26:04.859Z,0
2017-01-19T03:27:13.844Z,0
2017-01-19T03:28:22.845Z,0
2017-01-19T03:29:31.825Z,0
2017-01-19T03:30:40.809Z,0
2017-01-19T03:31:49.786Z,0
2017-01-19T03:32:58.767Z,0
2017-01-19T03:34:07.746Z,0
2017-01-19T03:35:16.724Z,0
2017-01-19T03:36:25.700Z,0
2017-01-19T03:37:34.705Z,0
2017-01-19T03:38:43.682Z,0
2017-01-19T03:39:52.664Z,0
2017-01-19T03:41:01.640Z,0
2017-01-19T03:42:10.623Z,0
2017-01-19T03:43:19.600Z,0
2017-01-19T03:44:28.629Z,0
2017-01-19T03:45:37.610Z,0
2017-01-19T03:46:46.591Z,0
2017-01-19T03:47:55.568Z,0
2017-01-19T03:49:04.544Z,0
2017-01-19T03:50:13.520Z,0
2017-01-19T03:51:22.502Z,0
2017-01-19T03:52:31.481Z,0
2017-01-19T03:53:40.468Z,0
2017-01-19T03:54:49.445Z,0
2017-01-19T03:55:58.424Z,0
2017-01-19T03:57:07.409Z,0
2017-01-19T03:58:16.385Z,0
2017-01-19T03:59:25.392Z,0
2017-01-19T04:00:34.395Z,0
2017-01-19T04:01:43.371Z,0
2017-01-19T04:02:52.350Z,0
2017-01-19T04:04:01.364Z,0
2017-01-19T04:05:10.339Z,0
2017-01-19T04:06:19.321Z,0
2017-01-19T04:07:28.303Z,0
2017-01-19T04:08:37.278Z,0
2017-01-19T04:09:46.262Z,0
2017-01-19T04:10:55.241Z,0
2017-01-19T04:12:04.222Z,0
2017-01-19T04:13:13.195Z,0
2017-01-19T04:14:22.172Z,0
2017-01-19T04:15:31.157Z,0
2017-01-19T04:16:40.145Z,0
2017-01-19T04:17:49.129Z,0
2017-01-19T04:18:58.102Z,0
2017-01-19T04:20:07.086Z,0
2017-01-19T04:21:16.069Z,0
2017-01-19T04:22:25.048Z,0
2017-01-19T04:23:34.028Z,0
2017-01-19T04:24:43.004Z,0
2017-01-19T04:25:51.985Z,0
2017-01-19T04:27:00.969Z,0
2017-01-19T04:28:09.951Z,0
2017-01-19T04:29:18.937Z,0
2017-01-19T04:30:27.910Z,0
2017-01-19T04:31:36.904Z,0
2017-01-19T04:32:45.889Z,0
2017-01-19T04:33:54.900Z,0
2017-01-19T04:35:03.880Z,0
2017-01-19T04:36:12.861Z,0
2017-01-19T04:37:21.838Z,0
2017-01-19T04:38:30.816Z,0
2017-01-19T04:39:39.800Z,0
2017-01-19T04:40:48.781Z,0
2017-01-19T04:41:57.787Z,0
2017-01-19T04:43:06.769Z,0
2017-01-19T04:44:15.743Z,0
2017-01-19T04:45:24.724Z,0
2017-01-19T04:46:33.700Z,0
2017-01-19T04:47:42.682Z,0
2017-01-19T04:48:51.669Z,0
2017-01-19T04:50:00.650Z,0
2017-01-19T04:51:09.629Z,0
2017-01-19T04:52:18.612Z,0
2017-01-19T04:53:27.595Z,0
2017-01-19T04:54:36.580Z,0
2017-01-19T04:55:45.557Z,0
2017-01-19T04:56:54.541Z,0
2017-01-19T04:58:03.517Z,0
2017-01-19T04:59:12.550Z,0
2017-01-19T05:00:21.526Z,0
2017-01-19T05:01:30.506Z,0
2017-01-19T05:02:39.489Z,0
2017-01-19T05:03:48.466Z,0
2017-01-19T05:04:57.441Z,0
2017-01-19T05:06:06.419Z,0
2017-01-19T05:07:15.399Z,0
2017-01-19T05:08:24.379Z,0
2017-01-19T05:09:33.360Z,0
2017-01-19T05:10:42.341Z,0
2017-01-19T05:11:51.319Z,0
2017-01-19T05:13:00.298Z,0
2017-01-19T05:14:09.276Z,0
2017-01-19T05:15:18.250Z,0
2017-01-19T05:16:27.233Z,0
2017-01-19T05:17:36.234Z,0
2017-01-19T05:18:45.215Z,0
2017-01-19T05:19:54.191Z,0
2017-01-19T05:21:03.173Z,0
2017-01-19T05:22:12.170Z,0
2017-01-19T05:23:21.147Z,0
2017-01-19T05:24:30.136Z,0
2017-01-19T05:25:39.530Z,0
2017-01-19T05:26:48.520Z,0
2017-01-19T05:27:57.497Z,0
2017-01-19T05:29:06.474Z,0
2017-01-19T05:30:15.448Z,0
2017-01-19T05:31:24.427Z,0
2017-01-19T05:32:33.405Z,0
2017-01-19T05:33:42.386Z,0
2017-01-19T05:34:51.380Z,0
2017-01-19T05:36:00.362Z,0
2017-01-19T05:37:09.335Z,0
2017-01-19T05:38:18.316Z,0
2017-01-19T05:39:27.294Z,0
2017-01-19T05:40:36.275Z,0
2017-01-19T05:41:45.263Z,0
2017-01-19T05:42:54.243Z,0
2017-01-19T05:44:03.222Z,0
2017-01-19T05:45:12.204Z,0
2017-01-19T05:46:21.183Z,0
2017-01-19T05:47:30.165Z,0
2017-01-19T05:48:39.168Z,0
2017-01-19T05:49:48.157Z,0
2017-01-19T05:50:57.134Z,0
2017-01-19T05:52:06.116Z,0
2017-01-19T05:53:15.094Z,0
2017-01-19T05:54:24.074Z,0
2017-01-19T05:55:33.054Z,0
2017-01-19T05:56:42.031Z,0
2017-01-19T05:57:51.006Z,0
2017-01-19T05:58:59.986Z,0
2017-01-19T06:00:08.966Z,0
2017-01-19T06:01:17.968Z,0
2017-01-19T06:02:26.945Z,0
2017-01-19T06:03:35.923Z,0
2017-01-19T06:04:44.909Z,0
2017-01-19T06:05:53.882Z,0
2017-01-19T06:07:02.860Z,0
2017-01-19T06:08:11.837Z,0
2017-01-19T06:09:20.810Z,0
2017-01-19T06:10:29.789Z,0
2017-01-19T06:11:38.770Z,0
2017-01-19T06:12:47.754Z,0
2017-01-19T06:13:56.733Z,0
2017-01-19T06:15:05.713Z,0
2017-01-19T06:16:14.695Z,0
2017-01-19T06:17:23.701Z,0
2017-01-19T06:18:32.682Z,0
2017-01-19T06:19:41.661Z,0
2017-01-19T06:20:50.648Z,0
2017-01-19T06:21:59.627Z,0
2017-01-19T06:23:08.610Z,0
2017-01-19T06:24:17.583Z,0
2017-01-19T06:25:26.568Z,0
2017-01-19T06:26:35.543Z,0
2017-01-19T06:27:44.527Z,0
2017-01-19T06:28:53.511Z,0
2017-01-19T06:30:02.489Z,0
2017-01-19T06:31:11.467Z,0
2017-01-19T06:32:20.442Z,0
2017-01-19T06:33:29.419Z,4
2017-01-19T06:34:38.400Z,0
2017-01-19T06:35:47.389Z,0
2017-01-19T06:36:56.378Z,4
2017-01-19T06:38:05.359Z,4
2017-01-19T06:39:14.338Z,4
2017-01-19T06:40:23.320Z,4
2017-01-19T06:41:32.297Z,4
2017-01-19T06:42:41.282Z,8
2017-01-19T06:43:50.262Z,4
2017-01-19T06:44:59.240Z,4
2017-01-19T06:46:08.229Z,8
2017-01-19T06:47:17.211Z,12
2017-01-19T06:48:26.192Z,12
2017-01-19T06:49:35.170Z,12
2017-01-19T06:50:44.152Z,16
2017-01-19T06:51:53.129Z,20
2017-01-19T06:53:02.111Z,20
2017-01-19T06:54:11.095Z,20
2017-01-19T06:55:20.073Z,28
2017-01-19T06:56:29.055Z,28
2017-01-19T06:57:38.029Z,32
2017-01-19T06:58:47.009Z,36
2017-01-19T06:59:55.993Z,40
2017-01-19T07:01:04.970Z,44
2017-01-19T07:02:13.949Z,48
2017-01-19T07:03:22.925Z,52
2017-01-19T07:04:31.912Z,56
2017-01-19T07:05:40.889Z,64
2017-01-19T07:06:49.874Z,68
2017-01-19T07:07:58.853Z,68
2017-01-19T07:09:07.832Z,80
2017-01-19T07:10:16.808Z,84
2017-01-19T07:11:25.789Z,92
2017-01-19T07:12:34.766Z,100
2017-01-19T07:13:43.743Z,108
2017-01-19T07:14:52.730Z,120
2017-01-19T07:16:01.711Z,124
2017-01-19T07:17:10.693Z,136
2017-01-19T07:18:19.672Z,144
2017-01-19T07:19:28.651Z,152
2017-01-19T07:20:37.628Z,160
2017-01-19T07:21:46.613Z,168
2017-01-19T07:22:55.596Z,176
2017-01-19T07:24:04.572Z,184
2017-01-19T07:25:13.546Z,200
2017-01-19T07:26:22.526Z,208
2017-01-19T07:27:31.500Z,208
2017-01-19T07:28:40.473Z,220
2017-01-19T07:29:49.457Z,232
2017-01-19T07:30:58.434Z,256
2017-01-19T07:32:07.411Z,272
2017-01-19T07:33:16.388Z,288
2017-01-19T07:34:25.387Z,296
2017-01-19T07:35:34.365Z,308
2017-01-19T07:36:43.344Z,320
2017-01-19T07:37:52.323Z,332
2017-01-19T07:39:01.301Z,348
2017-01-19T07:40:10.278Z,360
2017-01-19T07:41:19.256Z,368
2017-01-19T07:42:28.250Z,384
2017-01-19T07:43:37.233Z,400
2017-01-19T07:44:46.206Z,412
2017-01-19T07:45:55.190Z,424
2017-01-19T07:47:04.165Z,444
2017-01-19T07:48:13.143Z,464
2017-01-19T07:49:22.121Z,476
2017-01-19T07:50:31.104Z,488
2017-01-19T07:51:40.105Z,496
2017-01-19T07:52:49.087Z,500
2017-01-19T07:53:58.063Z,520
2017-01-19T07:55:07.050Z,560
2017-01-19T07:56:16.035Z,588
2017-01-19T07:57:25.016Z,620
2017-01-19T07:58:34.001Z,648
2017-01-19T07:59:42.987Z,668
2017-01-19T08:00:51.965Z,680
2017-01-19T08:02:00.949Z,680
2017-01-19T08:03:09.932Z,696
2017-01-19T08:04:18.933Z,724
2017-01-19T08:05:27.913Z,748
2017-01-19T08:06:36.889Z,772
2017-01-19T08:07:45.868Z,792
2017-01-19T08:08:54.854Z,808
2017-01-19T08:10:03.835Z,820
2017-01-19T08:11:12.822Z,840
2017-01-19T08:12:21.809Z,876
2017-01-19T08:13:30.795Z,916
2017-01-19T08:14:39.772Z,948
2017-01-19T08:15:48.747Z,968
2017-01-19T08:16:57.722Z,1000
2017-01-19T08:18:06.710Z,1032
2017-01-19T08:19:15.685Z,1052
2017-01-19T08:20:24.698Z,1068
2017-01-19T08:21:33.673Z,1076
2017-01-19T08:22:42.649Z,1076
2017-01-19T08:23:51.628Z,1080
2017-01-19T08:25:00.613Z,1068
2017-01-19T08:26:09.597Z,1084
2017-01-19T08:27:18.574Z,1092
2017-01-19T08:28:27.548Z,1100
2017-01-19T08:29:36.528Z,1108
2017-01-19T08:30:45.511Z,1148
2017-01-19T08:31:54.488Z,1184
2017-01-19T08:33:03.468Z,1220
2017-01-19T08:34:12.449Z,1248
2017-01-19T08:35:21.432Z,1272
2017-01-19T08:36:30.413Z,1304
2017-01-19T08:37:39.400Z,1328
2017-01-19T08:38:48.379Z,1324
2017-01-19T08:39:57.358Z,1296
2017-01-19T08:41:06.343Z,1312
2017-01-19T08:42:15.329Z,1332
2017-01-19T08:43:24.317Z,1360
2017-01-19T08:44:33.298Z,1368
2017-01-19T08:45:42.281Z,1380
2017-01-19T08:46:51.262Z,1380
2017-01-19T08:48:00.240Z,1352
2017-01-19T08:49:09.227Z,1400
2017-01-19T08:50:18.208Z,1408
2017-01-19T08:51:27.188Z,1420
2017-01-19T08:52:36.167Z,1392
2017-01-19T08:53:45.147Z,1404
2017-01-19T08:54:54.131Z,1396
2017-01-19T08:56:03.114Z,1420
2017-01-19T08:57:12.093Z,1380
2017-01-19T08:58:21.076Z,1312
2017-01-19T08:59:30.055Z,1316
2017-01-19T09:00:39.042Z,1328
2017-01-19T09:01:48.016Z,1280
2017-01-19T09:02:56.999Z,1368
2017-01-19T09:04:05.984Z,1496
2017-01-19T09:05:14.974Z,1544
2017-01-19T09:06:23.952Z,1584
2017-01-19T09:07:32.931Z,1612
2017-01-19T09:08:41.911Z,1600
2017-01-19T09:09:50.895Z,1624
2017-01-19T09:10:59.907Z,1676
2017-01-19T09:12:08.903Z,1668
2017-01-19T09:13:18.000Z,1652
2017-01-19T09:14:27.240Z,1556
2017-01-19T09:15:36.644Z,1444
2017-01-19T09:16:46.185Z,1328
2017-01-19T09:17:56.205Z,1284
2017-01-19T09:19:06.019Z,1240
2017-01-19T09:20:15.647Z,1196
2017-01-19T09:21:25.776Z,1124
2017-01-19T09:22:35.305Z,1044
2017-01-19T09:23:44.656Z,1068
2017-01-19T09:24:54.057Z,1100
2017-01-19T09:26:03.192Z,1124
2017-01-19T09:27:12.273Z,1228
2017-01-19T09:28:21.652Z,1412
2017-01-19T09:29:30.876Z,1492
2017-01-19T09:30:40.205Z,1480
2017-01-19T09:31:49.606Z,1368
2017-01-19T09:32:59.404Z,1212
2017-01-19T09:34:08.607Z,1132
2017-01-19T09:35:18.003Z,1116
2017-01-19T09:36:27.980Z,1136
2017-01-19T09:37:37.800Z,1216
2017-01-19T09:38:47.492Z,1216
2017-01-19T09:39:56.717Z,1168
2017-01-19T09:41:06.881Z,1164
2017-01-19T09:42:16.579Z,1192
2017-01-19T09:43:26.084Z,1272
2017-01-19T09:44:35.477Z,1320
2017-01-19T09:45:44.665Z,1492
2017-01-19T09:46:54.306Z,1572
2017-01-19T09:48:03.857Z,1580
2017-01-19T09:49:13.628Z,1568
2017-01-19T09:50:22.773Z,1556
2017-01-19T09:51:32.162Z,1556
2017-01-19T09:52:41.823Z,1508
2017-01-19T09:53:51.942Z,1464
2017-01-19T09:55:01.167Z,1400
2017-01-19T09:56:10.540Z,1392
2017-01-19T09:57:20.083Z,1436
2017-01-19T09:58:29.531Z,1584
2017-01-19T09:59:38.814Z,1712
2017-01-19T10:00:48.004Z,1780
2017-01-19T10:01:57.392Z,1844
2017-01-19T10:03:06.858Z,1844
2017-01-19T10:04:16.122Z,1860
2017-01-19T10:05:25.377Z,1860
2017-01-19T10:06:34.544Z,1856
2017-01-19T10:07:44.856Z,1928
2017-01-19T10:08:54.183Z,1960
2017-01-19T10:10:03.484Z,1968
2017-01-19T10:11:13.055Z,1996
2017-01-19T10:12:22.658Z,1984
2017-01-19T10:13:33.562Z,2032
2017-01-19T10:14:43.406Z,2040
2017-01-19T10:15:52.795Z,2040
2017-01-19T10:17:02.032Z,2100
2017-01-19T10:18:11.425Z,2088
2017-01-19T10:19:20.994Z,2100
2017-01-19T10:20:30.269Z,2108
2017-01-19T10:21:39.594Z,2088
2017-01-19T10:22:49.028Z,2116
2017-01-19T10:23:58.346Z,2084
2017-01-19T10:25:07.543Z,2104
2017-01-19T10:26:16.713Z,2024
2017-01-19T10:27:26.653Z,2036
2017-01-19T10:28:35.764Z,2020
2017-01-19T10:29:44.854Z,2060
2017-01-19T10:30:54.167Z,2036
2017-01-19T10:32:03.328Z,2084
2017-01-19T10:33:13.279Z,2020
2017-01-19T10:34:22.444Z,2072
2017-01-19T10:35:31.585Z,2048
2017-01-19T10:36:40.898Z,2108
2017-01-19T10:37:50.120Z,2100
2017-01-19T10:39:00.206Z,2152
2017-01-19T10:40:09.245Z,2184
2017-01-19T10:41:18.424Z,2260
2017-01-19T10:42:27.504Z,2212
2017-01-19T10:43:37.890Z,2212
2017-01-19T10:44:47.113Z,2180
2017-01-19T10:45:56.264Z,2248
2017-01-19T10:47:05.332Z,2276
2017-01-19T10:48:14.515Z,2288
2017-01-19T10:49:23.691Z,2332
2017-01-19T10:50:32.922Z,2340
2017-01-19T10:51:42.154Z,2372
2017-01-19T10:52:51.231Z,2436
2017-01-19T10:54:00.293Z,2340
2017-01-19T10:55:09.429Z,2308
2017-01-19T10:56:18.626Z,2312
2017-01-19T10:57:27.603Z,2332
2017-01-19T10:58:36.588Z,2404
2017-01-19T10:59:45.569Z,2384
2017-01-19T11:00:54.556Z,2352
2017-01-19T11:02:03.537Z,2344
2017-01-19T11:03:13.037Z,2336
2017-01-19T11:04:22.016Z,2248
2017-01-19T11:05:31.595Z,2336
2017-01-19T11:06:41.406Z,2400
2017-01-19T11:07:50.590Z,2320
2017-01-19T11:08:59.751Z,2284
2017-01-19T11:10:08.790Z,2192
2017-01-19T11:11:18.492Z,2168
2017-01-19T11:12:27.515Z,2144
2017-01-19T11:13:37.838Z,2164
2017-01-19T11:14:46.817Z,2200
2017-01-19T11:15:55.795Z,2232
2017-01-19T11:17:04.772Z,2240
2017-01-19T11:18:14.633Z,2316
2017-01-19T11:19:23.613Z,2276
2017-01-19T11:20:33.028Z,2248
2017-01-19T11:21:42.012Z,2260
2017-01-19T11:22:51.023Z,2292
2017-01-19T11:24:03.033Z,2160
2017-01-19T11:25:13.720Z,2192
2017-01-19T11:26:23.981Z,2320
2017-01-19T11:27:32.964Z,2336
2017-01-19T11:28:42.108Z,2288
2017-01-19T11:29:51.344Z,2336
2017-01-19T11:31:00.736Z,2360
2017-01-19T11:32:10.161Z,2332
2017-01-19T11:33:19.424Z,2388
2017-01-19T11:34:29.123Z,2376
2017-01-19T11:35:38.287Z,2336
2017-01-19T11:36:47.243Z,2344
2017-01-19T11:37:56.296Z,2372
2017-01-19T11:39:05.824Z,2344
2017-01-19T11:40:15.078Z,2268
2017-01-19T11:41:24.034Z,2212
2017-01-19T11:42:32.987Z,2176
2017-01-19T11:43:41.939Z,2156
2017-01-19T11:44:50.898Z,2164
2017-01-19T11:45:59.860Z,2176
2017-01-19T11:47:08.815Z,2108
2017-01-19T11:48:17.768Z,2072
2017-01-19T11:49:26.723Z,2112
2017-01-19T11:50:35.675Z,2188
2017-01-19T11:51:44.722Z,2288
2017-01-19T11:52:53.771Z,2280
2017-01-19T11:54:02.814Z,2256
2017-01-19T11:55:11.789Z,2244
2017-01-19T11:56:20.746Z,2216
2017-01-19T11:57:29.700Z,2216
2017-01-19T11:58:38.657Z,2124
2017-01-19T11:59:47.636Z,1952
2017-01-19T12:00:56.603Z,1736
2017-01-19T12:02:05.563Z,1548
2017-01-19T12:03:14.519Z,1404
2017-01-19T12:04:23.470Z,1360
2017-01-19T12:05:32.426Z,1464
2017-01-19T12:06:41.472Z,1464
2017-01-19T12:07:50.428Z,1432
2017-01-19T12:08:59.382Z,1404
2017-01-19T12:10:08.338Z,1428
2017-01-19T12:11:17.288Z,1452
2017-01-19T12:12:26.244Z,1520
2017-01-19T12:13:35.202Z,1552
2017-01-19T12:14:44.157Z,1556
2017-01-19T12:15:53.117Z,1556
2017-01-19T12:17:02.071Z,1568
2017-01-19T12:18:11.022Z,1580
2017-01-19T12:19:19.979Z,1588
2017-01-19T12:20:28.934Z,1572
2017-01-19T12:21:37.890Z,1552
2017-01-19T12:22:46.845Z,1600
2017-01-19T12:23:55.895Z,1612
2017-01-19T12:25:04.846Z,1632
2017-01-19T12:26:13.802Z,1624
2017-01-19T12:27:22.753Z,1632
2017-01-19T12:28:31.702Z,1636
2017-01-19T12:29:40.659Z,1616
2017-01-19T12:30:49.609Z,1616
2017-01-19T12:31:58.559Z,1664
2017-01-19T12:33:07.511Z,1664
2017-01-19T12:34:16.465Z,1712
2017-01-19T12:35:25.421Z,1728
2017-01-19T12:36:34.374Z,1680
2017-01-19T12:37:43.322Z,1688
2017-01-19T12:38:52.267Z,1648
2017-01-19T12:40:01.221Z,1660
2017-01-19T12:41:10.175Z,1664
2017-01-19T12:42:19.137Z,1648
2017-01-19T12:43:28.091Z,1664
2017-01-19T12:44:37.048Z,1604
2017-01-19T12:45:46.004Z,1588
2017-01-19T12:46:54.956Z,1632
2017-01-19T12:48:03.913Z,1684
2017-01-19T12:49:12.866Z,1728
2017-01-19T12:50:21.828Z,1700
2017-01-19T12:51:30.802Z,1664
2017-01-19T12:52:39.752Z,1640
2017-01-19T12:53:48.711Z,1612
2017-01-19T12:54:57.667Z,1588
2017-01-19T12:56:06.626Z,1584
2017-01-19T12:57:15.587Z,1608
2017-01-19T12:58:24.541Z,1620
2017-01-19T12:59:33.494Z,1584
2017-01-19T13:00:42.446Z,1540
2017-01-19T13:01:51.400Z,1500
2017-01-19T13:03:00.361Z,1476
2017-01-19T13:04:09.349Z,1448
2017-01-19T13:05:18.303Z,1412
2017-01-19T13:06:27.253Z,1352
2017-01-19T13:07:36.211Z,1416
2017-01-19T13:08:45.227Z,1428
2017-01-19T13:09:54.596Z,1412
2017-01-19T13:11:03.554Z,1468
2017-01-19T13:12:12.509Z,1444
2017-01-19T13:13:21.462Z,1408
2017-01-19T13:14:30.418Z,1328
2017-01-19T13:15:39.372Z,1256
2017-01-19T13:16:48.329Z,1228
2017-01-19T13:17:57.288Z,1192
2017-01-19T13:19:06.245Z,1192
2017-01-19T13:20:15.196Z,1232
2017-01-19T13:21:24.477Z,1300
2017-01-19T13:22:33.781Z,1328
2017-01-19T13:23:42.741Z,1380
2017-01-19T13:24:52.060Z,1448
2017-01-19T13:26:01.105Z,1456
2017-01-19T13:27:10.067Z,1432
2017-01-19T13:28:21.826Z,1456
2017-01-19T13:29:32.587Z,1380
2017-01-19T13:30:43.362Z,1324
2017-01-19T13:31:52.662Z,1280
2017-01-19T13:33:03.806Z,1268
2017-01-19T13:34:13.311Z,1236
2017-01-19T13:35:22.416Z,1196
2017-01-19T13:36:31.389Z,1196
2017-01-19T13:37:40.823Z,1236
2017-01-19T13:38:49.781Z,1240
2017-01-19T13:39:58.728Z,1188
2017-01-19T13:41:07.683Z,1136
2017-01-19T13:42:16.636Z,1084
2017-01-19T13:43:25.685Z,1088
2017-01-19T13:44:34.644Z,1056
2017-01-19T13:45:43.624Z,1016
2017-01-19T13:46:53.178Z,972
2017-01-19T13:48:02.942Z,900
2017-01-19T13:49:16.416Z,848
2017-01-19T13:50:26.761Z,840
2017-01-19T13:51:35.712Z,852
2017-01-19T13:52:44.666Z,884
2017-01-19T13:53:53.716Z,924
2017-01-19T13:55:02.678Z,920
2017-01-19T13:56:11.639Z,908
2017-01-19T13:57:20.601Z,860
2017-01-19T13:58:29.554Z,816
2017-01-19T13:59:38.536Z,796
2017-01-19T14:00:47.577Z,768
2017-01-19T14:01:56.532Z,764
2017-01-19T14:03:05.483Z,812
2017-01-19T14:04:14.435Z,820
2017-01-19T14:05:23.634Z,792
2017-01-19T14:06:33.721Z,772
2017-01-19T14:07:43.005Z,736
2017-01-19T14:08:51.962Z,724
2017-01-19T14:10:00.915Z,716
2017-01-19T14:11:09.871Z,704
2017-01-19T14:12:18.825Z,688
2017-01-19T14:13:27.797Z,664
2017-01-19T14:14:36.856Z,656
2017-01-19T14:15:45.816Z,640
2017-01-19T14:16:54.863Z,640
2017-01-19T14:18:03.900Z,628
2017-01-19T14:19:12.860Z,608
2017-01-19T14:20:21.824Z,600
2017-01-19T14:21:30.782Z,604
2017-01-19T14:22:39.744Z,600
2017-01-19T14:23:48.703Z,624
2017-01-19T14:24:57.744Z,628
2017-01-19T14:26:06.699Z,632
2017-01-19T14:27:15.654Z,620
2017-01-19T14:28:24.618Z,624
2017-01-19T14:29:33.579Z,640
2017-01-19T14:30:42.529Z,656
2017-01-19T14:31:51.492Z,664
2017-01-19T14:33:00.450Z,640
2017-01-19T14:34:09.412Z,584
2017-01-19T14:35:18.368Z,508
2017-01-19T14:36:27.347Z,432
2017-01-19T14:37:36.303Z,404
2017-01-19T14:38:45.263Z,388
2017-01-19T14:39:54.220Z,376
2017-01-19T14:41:03.181Z,364
2017-01-19T14:42:12.145Z,352
2017-01-19T14:43:21.097Z,344
2017-01-19T14:44:30.112Z,340
2017-01-19T14:45:39.089Z,340
2017-01-19T14:46:48.046Z,340
2017-01-19T14:47:57.002Z,336
2017-01-19T14:49:05.960Z,336
2017-01-19T14:50:14.951Z,328
2017-01-19T14:51:23.936Z,328
2017-01-19T14:52:32.893Z,324
2017-01-19T14:53:41.845Z,324
2017-01-19T14:54:50.795Z,316
2017-01-19T14:55:59.750Z,300
2017-01-19T14:57:08.725Z,296
2017-01-19T14:58:17.679Z,284
2017-01-19T14:59:26.721Z,280
2017-01-19T15:00:35.682Z,276
2017-01-19T15:01:44.774Z,264
2017-01-19T15:02:53.727Z,252
2017-01-19T15:04:02.689Z,240
2017-01-19T15:05:11.647Z,236
2017-01-19T15:06:20.602Z,228
2017-01-19T15:07:29.557Z,216
2017-01-19T15:08:38.511Z,208
2017-01-19T15:09:47.471Z,196
2017-01-19T15:10:56.423Z,188
2017-01-19T15:12:05.380Z,176
2017-01-19T15:13:14.337Z,168
2017-01-19T15:14:23.406Z,160
2017-01-19T15:15:32.370Z,148
2017-01-19T15:16:41.328Z,144
2017-01-19T15:17:50.286Z,132
2017-01-19T15:19:01.593Z,124
2017-01-19T15:20:10.904Z,116
2017-01-19T15:21:19.861Z,112
2017-01-19T15:22:28.902Z,104
2017-01-19T15:23:37.856Z,96
2017-01-19T15:24:46.810Z,88
2017-01-19T15:25:55.772Z,80
2017-01-19T15:27:05.418Z,76
2017-01-19T15:28:14.459Z,72
2017-01-19T15:29:23.439Z,64
2017-01-19T15:30:32.398Z,60
2017-01-19T15:31:41.356Z,52
2017-01-19T15:32:50.310Z,48
2017-01-19T15:33:59.260Z,44
2017-01-19T15:35:08.212Z,40
2017-01-19T15:36:17.343Z,36
2017-01-19T15:37:26.392Z,32
2017-01-19T15:38:35.436Z,28
2017-01-19T15:39:44.396Z,24
2017-01-19T15:40:53.353Z,20
2017-01-19T15:42:02.311Z,16
2017-01-19T15:43:11.273Z,20
2017-01-19T15:44:20.233Z,16
2017-01-19T15:45:29.218Z,12
2017-01-19T15:46:38.176Z,12
2017-01-19T15:47:47.126Z,8
2017-01-19T15:48:56.082Z,8
2017-01-19T15:50:05.036Z,4
2017-01-19T15:51:13.994Z,4
2017-01-19T15:52:23.039Z,4
2017-01-19T15:53:32.002Z,4
2017-01-19T15:54:40.961Z,4
2017-01-19T15:55:49.918Z,0
2017-01-19T15:56:58.876Z,4
2017-01-19T15:58:07.829Z,4
2017-01-19T15:59:16.786Z,0
2017-01-19T16:00:25.739Z,0
2017-01-19T16:01:34.692Z,4
2017-01-19T16:02:43.647Z,0
2017-01-19T16:03:52.611Z,0
2017-01-19T16:05:01.567Z,0
2017-01-19T16:06:10.523Z,0
2017-01-19T16:07:19.484Z,0
2017-01-19T16:08:28.438Z,0
2017-01-19T16:09:37.404Z,0
2017-01-19T16:10:46.354Z,0
2017-01-19T16:11:55.307Z,0
2017-01-19T16:13:04.357Z,0
2017-01-19T16:14:15.381Z,0
2017-01-19T16:15:26.857Z,0
2017-01-19T16:16:38.232Z,0
2017-01-19T16:17:50.214Z,0
2017-01-19T16:19:02.388Z,0